sensor_id;sensor_type;location;lat;lon;timestamp;P1;durP1;ratioP1;P2;durP2;ratioP2
71395;SDS011;59888;55.814;37.132;2023-06-14T07:58:48;8.80;;;2.50;;
71395;SDS011;59888;55.814;37.132;2023-06-14T08:01:16;4.10;;;2.20;;
71395;SDS011;59888;55.814;37.132;2023-06-14T08:03:42;4.68;;;2.33;;
71395;SDS011;59888;55.814;37.132;2023-06-14T08:06:08;8.52;;;2.53;;
71395;SDS011;59888;55.814;37.132;2023-06-14T08:08:35;6.05;;;2.13;;
71395;SDS011;59888;55.814;37.132;2023-06-14T08:13:33;4.78;;;2.35;;
71395;SDS011;59888;55.814;37.132;2023-06-14T08:15:59;4.85;;;2.17;;
71395;SDS011;59888;55.814;37.132;2023-06-14T08:18:26;3.55;;;2.17;;
71395;SDS011;59888;55.814;37.132;2023-06-14T08:20:52;4.10;;;2.92;;
71395;SDS011;59888;55.814;37.132;2023-06-14T08:23:19;5.45;;;2.50;;
71395;SDS011;59888;55.814;37.132;2023-06-14T08:25:47;6.95;;;2.60;;
71395;SDS011;59888;55.814;37.132;2023-06-14T08:28:13;5.22;;;2.72;;
71395;SDS011;59888;55.814;37.132;2023-06-14T08:30:41;7.47;;;2.38;;
71395;SDS011;59888;55.814;37.132;2023-06-14T08:33:08;4.57;;;2.53;;
71395;SDS011;59888;55.814;37.132;2023-06-14T08:35:34;5.57;;;2.65;;
71395;SDS011;59888;55.814;37.132;2023-06-14T08:38:02;5.25;;;3.00;;
71395;SDS011;59888;55.814;37.132;2023-06-14T08:40:30;4.78;;;2.50;;
71395;SDS011;59888;55.814;37.132;2023-06-14T08:42:56;4.90;;;2.47;;
71395;SDS011;59888;55.814;37.132;2023-06-14T08:45:23;4.53;;;2.25;;
71395;SDS011;59888;55.814;37.132;2023-06-14T08:47:50;8.48;;;2.30;;
71395;SDS011;59888;55.814;37.132;2023-06-14T08:50:23;5.57;;;2.42;;
71395;SDS011;59888;55.814;37.132;2023-06-14T08:52:53;6.00;;;2.63;;
71395;SDS011;59888;55.814;37.132;2023-06-14T08:55:23;5.28;;;2.60;;
71395;SDS011;59888;55.814;37.132;2023-06-14T08:57:56;5.03;;;2.60;;
71395;SDS011;59888;55.814;37.132;2023-06-14T09:00:25;5.28;;;2.70;;
71395;SDS011;59888;55.814;37.132;2023-06-14T09:02:52;8.30;;;2.78;;
71395;SDS011;59888;55.814;37.132;2023-06-14T09:05:25;7.32;;;3.25;;
71395;SDS011;59888;55.814;37.132;2023-06-14T09:07:52;4.07;;;2.67;;
71395;SDS011;59888;55.814;37.132;2023-06-14T09:10:22;5.00;;;2.50;;
71395;SDS011;59888;55.814;37.132;2023-06-14T09:20:31;3.60;;;2.47;;
71395;SDS011;59888;55.814;37.132;2023-06-14T09:22:57;7.60;;;2.83;;
71395;SDS011;59888;55.814;37.132;2023-06-14T09:25:24;3.15;;;2.17;;
71395;SDS011;59888;55.814;37.132;2023-06-14T09:27:51;5.30;;;2.90;;
71395;SDS011;59888;55.814;37.132;2023-06-14T09:30:19;5.97;;;2.65;;
71395;SDS011;59888;55.814;37.132;2023-06-14T09:32:46;6.07;;;2.58;;
71395;SDS011;59888;55.814;37.132;2023-06-14T09:37:41;5.90;;;2.60;;
71395;SDS011;59888;55.814;37.132;2023-06-14T09:40:07;4.47;;;2.90;;
71395;SDS011;59888;55.814;37.132;2023-06-14T10:23:13;5.95;;;2.50;;
71395;SDS011;59888;55.814;37.132;2023-06-14T10:25:44;3.58;;;2.33;;
71395;SDS011;59888;55.814;37.132;2023-06-14T10:28:14;4.97;;;2.42;;
71395;SDS011;59888;55.814;37.132;2023-06-14T10:31:06;5.15;;;2.50;;
71395;SDS011;59888;55.814;37.132;2023-06-14T10:33:50;4.93;;;2.85;;
71395;SDS011;59888;55.814;37.132;2023-06-14T10:38:57;6.35;;;2.78;;
71395;SDS011;59888;55.814;37.132;2023-06-14T10:46:11;3.97;;;2.55;;
71395;SDS011;59888;55.814;37.132;2023-06-14T10:48:44;7.28;;;2.63;;
71395;SDS011;59888;55.814;37.132;2023-06-14T10:51:19;5.80;;;2.83;;
71395;SDS011;59888;55.814;37.132;2023-06-14T10:53:47;4.22;;;2.38;;
71395;SDS011;59888;55.814;37.132;2023-06-14T10:58:54;4.30;;;2.30;;
71395;SDS011;59888;55.814;37.132;2023-06-14T11:04:07;5.28;;;2.80;;
71395;SDS011;59888;55.814;37.132;2023-06-14T11:06:46;6.05;;;2.35;;
71395;SDS011;59888;55.814;37.132;2023-06-14T11:09:20;4.20;;;2.42;;
71395;SDS011;59888;55.814;37.132;2023-06-14T11:11:57;4.47;;;2.40;;
71395;SDS011;59888;55.814;37.132;2023-06-14T11:14:29;3.95;;;2.63;;
71395;SDS011;59888;55.814;37.132;2023-06-14T11:16:59;4.55;;;2.58;;
71395;SDS011;59888;55.814;37.132;2023-06-14T11:19:27;4.45;;;2.47;;
71395;SDS011;59888;55.814;37.132;2023-06-14T11:21:54;4.43;;;2.33;;
71395;SDS011;59888;55.814;37.132;2023-06-14T11:24:21;4.07;;;2.70;;
71395;SDS011;59888;55.814;37.132;2023-06-14T11:26:50;4.57;;;2.67;;
71395;SDS011;59888;55.814;37.132;2023-06-14T11:29:19;3.50;;;2.45;;
71395;SDS011;59888;55.814;37.132;2023-06-14T11:31:47;3.65;;;2.10;;
71395;SDS011;59888;55.814;37.132;2023-06-14T11:34:14;3.25;;;2.13;;
71395;SDS011;59888;55.814;37.132;2023-06-14T11:36:41;7.53;;;2.40;;
71395;SDS011;59888;55.814;37.132;2023-06-14T11:39:07;3.22;;;2.30;;
71395;SDS011;59888;55.814;37.132;2023-06-14T11:41:44;3.95;;;2.35;;
71395;SDS011;59888;55.814;37.132;2023-06-14T11:44:12;4.63;;;2.25;;
71395;SDS011;59888;55.814;37.132;2023-06-14T11:46:38;4.63;;;2.50;;
71395;SDS011;59888;55.814;37.132;2023-06-14T11:49:04;3.70;;;2.15;;
71395;SDS011;59888;55.814;37.132;2023-06-14T11:51:33;4.20;;;2.40;;
71395;SDS011;59888;55.814;37.132;2023-06-14T11:53:59;5.65;;;2.78;;
71395;SDS011;59888;55.814;37.132;2023-06-14T11:56:28;4.50;;;2.55;;
71395;SDS011;59888;55.814;37.132;2023-06-14T11:58:55;4.28;;;2.20;;
71395;SDS011;59888;55.814;37.132;2023-06-14T12:01:23;4.75;;;2.58;;
71395;SDS011;59888;55.814;37.132;2023-06-14T12:03:49;5.10;;;2.40;;
71395;SDS011;59888;55.814;37.132;2023-06-14T12:06:24;3.40;;;2.42;;
71395;SDS011;59888;55.814;37.132;2023-06-14T12:08:55;3.88;;;2.40;;
71395;SDS011;59888;55.814;37.132;2023-06-14T12:11:21;5.60;;;2.60;;
71395;SDS011;59888;55.814;37.132;2023-06-14T12:13:48;3.95;;;2.10;;
71395;SDS011;59888;55.814;37.132;2023-06-14T12:16:14;3.05;;;2.20;;
71395;SDS011;59888;55.814;37.132;2023-06-14T12:18:44;6.25;;;2.50;;
71395;SDS011;59888;55.814;37.132;2023-06-14T12:21:11;5.50;;;2.20;;
71395;SDS011;59888;55.814;37.132;2023-06-14T12:26:16;5.03;;;2.22;;
71395;SDS011;59888;55.814;37.132;2023-06-14T12:28:44;5.32;;;2.20;;
71395;SDS011;59888;55.814;37.132;2023-06-14T12:31:12;4.88;;;2.30;;
71395;SDS011;59888;55.814;37.132;2023-06-14T12:33:39;4.18;;;2.33;;
71395;SDS011;59888;55.814;37.132;2023-06-14T12:36:10;5.82;;;2.50;;
71395;SDS011;59888;55.814;37.132;2023-06-14T12:38:36;4.93;;;2.28;;
71395;SDS011;59888;55.814;37.132;2023-06-14T12:41:03;7.75;;;2.60;;
71395;SDS011;59888;55.814;37.132;2023-06-14T12:43:29;4.03;;;2.45;;
71395;SDS011;59888;55.814;37.132;2023-06-14T12:45:55;5.90;;;2.58;;
71395;SDS011;59888;55.814;37.132;2023-06-14T12:48:21;3.30;;;2.30;;
71395;SDS011;59888;55.814;37.132;2023-06-14T12:50:49;4.22;;;2.33;;
71395;SDS011;59888;55.814;37.132;2023-06-14T12:53:15;5.57;;;2.38;;
71395;SDS011;59888;55.814;37.132;2023-06-14T12:55:40;3.97;;;2.55;;
71395;SDS011;59888;55.814;37.132;2023-06-14T12:58:09;8.40;;;2.40;;
71395;SDS011;59888;55.814;37.132;2023-06-14T13:00:37;5.25;;;2.45;;
71395;SDS011;59888;55.814;37.132;2023-06-14T13:03:03;9.93;;;2.58;;
71395;SDS011;59888;55.814;37.132;2023-06-14T13:05:29;4.22;;;2.47;;
71395;SDS011;59888;55.814;37.132;2023-06-14T13:07:56;4.95;;;2.50;;
71395;SDS011;59888;55.814;37.132;2023-06-14T13:10:24;5.15;;;2.45;;
71395;SDS011;59888;55.814;37.132;2023-06-14T13:12:51;3.47;;;2.40;;
71395;SDS011;59888;55.814;37.132;2023-06-14T13:15:18;4.55;;;2.08;;
71395;SDS011;59888;55.814;37.132;2023-06-14T13:17:43;4.72;;;2.60;;
71395;SDS011;59888;55.814;37.132;2023-06-14T13:20:14;4.97;;;2.67;;
71395;SDS011;59888;55.814;37.132;2023-06-14T13:22:41;3.10;;;2.10;;
71395;SDS011;59888;55.814;37.132;2023-06-14T13:25:07;6.38;;;2.17;;
71395;SDS011;59888;55.814;37.132;2023-06-14T13:27:33;4.75;;;2.08;;
71395;SDS011;59888;55.814;37.132;2023-06-14T13:30:00;5.00;;;2.60;;
71395;SDS011;59888;55.814;37.132;2023-06-14T13:32:26;3.97;;;2.10;;
71395;SDS011;59888;55.814;37.132;2023-06-14T13:34:51;4.38;;;2.40;;
71395;SDS011;59888;55.814;37.132;2023-06-14T13:37:19;3.25;;;2.17;;
71395;SDS011;59888;55.814;37.132;2023-06-14T13:39:46;3.95;;;2.25;;
71395;SDS011;59888;55.814;37.132;2023-06-14T13:42:13;4.70;;;2.15;;
71395;SDS011;59888;55.814;37.132;2023-06-14T13:44:39;5.68;;;2.47;;
71395;SDS011;59888;55.814;37.132;2023-06-14T13:47:06;3.95;;;2.22;;
71395;SDS011;59888;55.814;37.132;2023-06-14T13:49:32;3.33;;;2.13;;
71395;SDS011;59888;55.814;37.132;2023-06-14T13:52:00;6.47;;;2.15;;
71395;SDS011;59888;55.814;37.132;2023-06-14T13:54:27;4.18;;;2.10;;
71395;SDS011;59888;55.814;37.132;2023-06-14T13:56:53;5.10;;;2.00;;
71395;SDS011;59888;55.814;37.132;2023-06-14T13:59:21;3.10;;;2.10;;
71395;SDS011;59888;55.814;37.132;2023-06-14T14:01:47;4.25;;;2.30;;
71395;SDS011;59888;55.814;37.132;2023-06-14T14:04:13;3.70;;;2.10;;
71395;SDS011;59888;55.814;37.132;2023-06-14T14:06:39;3.35;;;2.10;;
71395;SDS011;59888;55.814;37.132;2023-06-14T14:09:05;2.97;;;2.03;;
71395;SDS011;59888;55.814;37.132;2023-06-14T14:11:31;4.60;;;2.20;;
71395;SDS011;59888;55.814;37.132;2023-06-14T14:13:58;3.10;;;2.00;;
71395;SDS011;59888;55.814;37.132;2023-06-14T14:16:25;5.65;;;2.20;;
71395;SDS011;59888;55.814;37.132;2023-06-14T14:18:52;3.88;;;2.22;;
71395;SDS011;59888;55.814;37.132;2023-06-14T14:21:18;4.97;;;2.10;;
71395;SDS011;59888;55.814;37.132;2023-06-14T14:23:44;6.15;;;2.10;;
71395;SDS011;59888;55.814;37.132;2023-06-14T14:26:11;4.50;;;1.92;;
71395;SDS011;59888;55.814;37.132;2023-06-14T14:28:37;5.03;;;2.05;;
71395;SDS011;59888;55.814;37.132;2023-06-14T14:31:03;3.20;;;2.05;;
71395;SDS011;59888;55.814;37.132;2023-06-14T14:33:29;4.20;;;2.25;;
71395;SDS011;59888;55.814;37.132;2023-06-14T14:35:56;3.88;;;1.95;;
71395;SDS011;59888;55.814;37.132;2023-06-14T14:38:21;7.93;;;2.42;;
71395;SDS011;59888;55.814;37.132;2023-06-14T14:40:47;5.53;;;2.33;;
71395;SDS011;59888;55.814;37.132;2023-06-14T14:43:13;5.43;;;2.10;;
71395;SDS011;59888;55.814;37.132;2023-06-14T14:45:40;4.47;;;1.95;;
71395;SDS011;59888;55.814;37.132;2023-06-14T14:48:06;2.75;;;2.28;;
71395;SDS011;59888;55.814;37.132;2023-06-14T14:50:32;3.35;;;2.22;;
71395;SDS011;59888;55.814;37.132;2023-06-14T14:52:59;4.28;;;2.20;;
71395;SDS011;59888;55.814;37.132;2023-06-14T14:55:25;4.40;;;2.20;;
71395;SDS011;59888;55.814;37.132;2023-06-14T14:57:51;4.05;;;1.88;;
71395;SDS011;59888;55.814;37.132;2023-06-14T15:00:17;4.65;;;2.20;;
71395;SDS011;59888;55.814;37.132;2023-06-14T15:02:43;4.00;;;2.33;;
71395;SDS011;59888;55.814;37.132;2023-06-14T15:05:09;3.78;;;2.17;;
71395;SDS011;59888;55.814;37.132;2023-06-14T15:07:37;5.32;;;2.28;;
71395;SDS011;59888;55.814;37.132;2023-06-14T15:10:05;2.65;;;2.20;;
71395;SDS011;59888;55.814;37.132;2023-06-14T15:12:32;4.50;;;1.92;;
71395;SDS011;59888;55.814;37.132;2023-06-14T17:01:36;5.18;;;2.60;;
71395;SDS011;59888;55.814;37.132;2023-06-14T17:04:03;4.05;;;2.58;;
71395;SDS011;59888;55.814;37.132;2023-06-14T17:06:29;7.90;;;2.55;;
71395;SDS011;59888;55.814;37.132;2023-06-14T17:08:55;3.63;;;2.50;;
71395;SDS011;59888;55.814;37.132;2023-06-14T17:11:21;3.58;;;2.40;;
71395;SDS011;59888;55.814;37.132;2023-06-14T17:13:50;7.65;;;2.50;;
71395;SDS011;59888;55.814;37.132;2023-06-14T17:16:17;3.42;;;2.20;;
71395;SDS011;59888;55.814;37.132;2023-06-14T17:39:47;7.33;;;2.77;;
71395;SDS011;59888;55.814;37.132;2023-06-14T17:42:15;5.95;;;2.85;;
71395;SDS011;59888;55.814;37.132;2023-06-14T17:44:41;6.93;;;2.85;;
71395;SDS011;59888;55.814;37.132;2023-06-14T17:47:07;5.80;;;2.80;;
71395;SDS011;59888;55.814;37.132;2023-06-14T17:49:33;4.82;;;2.53;;
71395;SDS011;59888;55.814;37.132;2023-06-14T17:51:59;4.57;;;2.75;;
71395;SDS011;59888;55.814;37.132;2023-06-14T17:54:25;6.00;;;3.33;;
71395;SDS011;59888;55.814;37.132;2023-06-14T17:56:52;7.07;;;3.42;;
71395;SDS011;59888;55.814;37.132;2023-06-14T17:59:19;8.30;;;3.72;;
71395;SDS011;59888;55.814;37.132;2023-06-14T18:01:45;5.72;;;3.38;;
71395;SDS011;59888;55.814;37.132;2023-06-14T18:04:11;6.75;;;3.00;;
71395;SDS011;59888;55.814;37.132;2023-06-14T18:06:38;5.07;;;3.50;;
71395;SDS011;59888;55.814;37.132;2023-06-14T18:09:04;7.05;;;3.78;;
71395;SDS011;59888;55.814;37.132;2023-06-14T18:11:30;7.88;;;3.33;;
71395;SDS011;59888;55.814;37.132;2023-06-14T18:13:59;6.78;;;3.30;;
71395;SDS011;59888;55.814;37.132;2023-06-14T18:16:25;7.65;;;3.40;;
71395;SDS011;59888;55.814;37.132;2023-06-14T18:18:53;5.60;;;2.97;;
71395;SDS011;59888;55.814;37.132;2023-06-14T18:21:20;7.07;;;3.35;;
71395;SDS011;59888;55.814;37.132;2023-06-14T18:23:46;5.93;;;2.97;;
71395;SDS011;59888;55.814;37.132;2023-06-14T18:26:24;4.22;;;2.95;;
71395;SDS011;59888;55.814;37.132;2023-06-14T18:28:54;9.73;;;3.53;;
71395;SDS011;59888;55.814;37.132;2023-06-14T18:31:21;5.85;;;3.30;;
71395;SDS011;59888;55.814;37.132;2023-06-14T18:33:47;9.98;;;3.63;;
71395;SDS011;59888;55.814;37.132;2023-06-14T18:36:13;12.15;;;3.80;;
71395;SDS011;59888;55.814;37.132;2023-06-14T18:38:39;7.20;;;3.55;;
71395;SDS011;59888;55.814;37.132;2023-06-14T18:41:05;5.32;;;3.30;;
71395;SDS011;59888;55.814;37.132;2023-06-14T18:43:31;7.15;;;3.50;;
71395;SDS011;59888;55.814;37.132;2023-06-14T18:45:58;8.70;;;3.67;;
71395;SDS011;59888;55.814;37.132;2023-06-14T18:48:25;9.40;;;3.83;;
71395;SDS011;59888;55.814;37.132;2023-06-14T18:50:51;7.47;;;4.00;;
71395;SDS011;59888;55.814;37.132;2023-06-14T18:53:17;8.98;;;3.75;;
71395;SDS011;59888;55.814;37.132;2023-06-14T18:55:43;6.53;;;3.80;;
71395;SDS011;59888;55.814;37.132;2023-06-14T18:58:12;5.88;;;3.63;;
71395;SDS011;59888;55.814;37.132;2023-06-14T19:00:39;6.85;;;4.00;;
71395;SDS011;59888;55.814;37.132;2023-06-14T19:03:05;12.13;;;4.30;;
71395;SDS011;59888;55.814;37.132;2023-06-14T19:05:33;11.05;;;6.60;;
71395;SDS011;59888;55.814;37.132;2023-06-14T19:07:59;8.75;;;5.07;;
71395;SDS011;59888;55.814;37.132;2023-06-14T19:10:25;13.05;;;4.88;;
71395;SDS011;59888;55.814;37.132;2023-06-14T19:12:51;7.82;;;4.47;;
71395;SDS011;59888;55.814;37.132;2023-06-14T19:15:17;9.25;;;4.95;;
71395;SDS011;59888;55.814;37.132;2023-06-14T19:20:46;11.82;;;4.82;;
71395;SDS011;59888;55.814;37.132;2023-06-14T19:23:14;9.63;;;4.55;;
71395;SDS011;59888;55.814;37.132;2023-06-14T19:25:40;7.68;;;4.45;;
71395;SDS011;59888;55.814;37.132;2023-06-14T19:28:06;6.28;;;4.47;;
71395;SDS011;59888;55.814;37.132;2023-06-14T19:30:32;8.93;;;4.88;;
71395;SDS011;59888;55.814;37.132;2023-06-14T19:33:00;8.38;;;4.03;;
71395;SDS011;59888;55.814;37.132;2023-06-14T19:35:47;9.30;;;4.88;;
71395;SDS011;59888;55.814;37.132;2023-06-14T19:38:13;10.88;;;4.30;;
71395;SDS011;59888;55.814;37.132;2023-06-14T19:41:00;7.53;;;4.55;;
71395;SDS011;59888;55.814;37.132;2023-06-14T19:43:27;9.27;;;4.72;;
71395;SDS011;59888;55.814;37.132;2023-06-14T19:45:54;8.88;;;4.47;;
71395;SDS011;59888;55.814;37.132;2023-06-14T19:48:20;8.73;;;4.97;;
71395;SDS011;59888;55.814;37.132;2023-06-14T19:50:46;10.02;;;4.43;;
71395;SDS011;59888;55.814;37.132;2023-06-14T19:56:02;11.60;;;5.30;;
71395;SDS011;59888;55.814;37.132;2023-06-14T19:58:32;12.05;;;5.32;;
71395;SDS011;59888;55.814;37.132;2023-06-14T20:00:58;9.77;;;5.43;;
71395;SDS011;59888;55.814;37.132;2023-06-14T20:03:24;10.13;;;5.47;;
71395;SDS011;59888;55.814;37.132;2023-06-14T20:05:50;11.90;;;5.90;;
71395;SDS011;59888;55.814;37.132;2023-06-14T20:08:19;11.85;;;5.00;;
71395;SDS011;59888;55.814;37.132;2023-06-14T20:10:52;12.85;;;5.78;;
71395;SDS011;59888;55.814;37.132;2023-06-14T20:13:19;10.60;;;6.55;;
71395;SDS011;59888;55.814;37.132;2023-06-14T20:15:46;17.70;;;6.88;;
71395;SDS011;59888;55.814;37.132;2023-06-14T20:18:12;11.60;;;6.00;;
71395;SDS011;59888;55.814;37.132;2023-06-14T20:20:38;14.13;;;7.30;;
71395;SDS011;59888;55.814;37.132;2023-06-14T20:23:09;15.48;;;6.50;;
71395;SDS011;59888;55.814;37.132;2023-06-14T20:25:36;13.70;;;6.80;;
71395;SDS011;59888;55.814;37.132;2023-06-14T20:28:03;14.02;;;7.30;;
71395;SDS011;59888;55.814;37.132;2023-06-14T20:30:30;15.35;;;6.75;;
71395;SDS011;59888;55.814;37.132;2023-06-14T20:32:56;13.57;;;6.47;;
71395;SDS011;59888;55.814;37.132;2023-06-14T20:35:22;16.58;;;7.88;;
71395;SDS011;59888;55.814;37.132;2023-06-14T20:37:47;15.02;;;7.10;;
71395;SDS011;59888;55.814;37.132;2023-06-14T20:40:23;12.80;;;6.55;;
71395;SDS011;59888;55.814;37.132;2023-06-14T20:42:51;16.50;;;7.47;;
71395;SDS011;59888;55.814;37.132;2023-06-14T20:45:22;12.95;;;6.25;;
71395;SDS011;59888;55.814;37.132;2023-06-14T20:47:52;13.98;;;6.78;;
71395;SDS011;59888;55.814;37.132;2023-06-14T20:50:19;11.95;;;6.03;;
71395;SDS011;59888;55.814;37.132;2023-06-14T20:52:45;11.10;;;6.13;;
71395;SDS011;59888;55.814;37.132;2023-06-14T20:55:13;14.60;;;6.85;;
71395;SDS011;59888;55.814;37.132;2023-06-14T20:57:41;11.65;;;6.68;;
71395;SDS011;59888;55.814;37.132;2023-06-14T21:00:07;14.48;;;6.80;;
71395;SDS011;59888;55.814;37.132;2023-06-14T21:02:38;13.77;;;6.93;;
71395;SDS011;59888;55.814;37.132;2023-06-14T21:05:06;16.48;;;7.07;;
71395;SDS011;59888;55.814;37.132;2023-06-14T21:07:35;12.80;;;5.70;;
71395;SDS011;59888;55.814;37.132;2023-06-14T21:10:02;14.50;;;6.18;;
71395;SDS011;59888;55.814;37.132;2023-06-14T21:12:29;16.35;;;6.65;;
71395;SDS011;59888;55.814;37.132;2023-06-14T21:14:57;11.30;;;6.35;;
71395;SDS011;59888;55.814;37.132;2023-06-14T21:17:23;10.77;;;5.72;;
71395;SDS011;59888;55.814;37.132;2023-06-14T21:19:49;14.20;;;5.95;;
71395;SDS011;59888;55.814;37.132;2023-06-14T21:22:15;12.50;;;6.22;;
71395;SDS011;59888;55.814;37.132;2023-06-14T21:24:41;14.48;;;6.35;;
71395;SDS011;59888;55.814;37.132;2023-06-14T21:27:08;11.43;;;6.45;;
71395;SDS011;59888;55.814;37.132;2023-06-14T21:29:34;15.43;;;6.22;;
71395;SDS011;59888;55.814;37.132;2023-06-14T21:32:01;10.30;;;6.00;;
71395;SDS011;59888;55.814;37.132;2023-06-14T21:34:27;10.13;;;5.57;;
71395;SDS011;59888;55.814;37.132;2023-06-14T21:36:54;14.57;;;5.95;;
71395;SDS011;59888;55.814;37.132;2023-06-14T21:39:21;12.27;;;6.10;;
71395;SDS011;59888;55.814;37.132;2023-06-14T21:41:47;10.93;;;6.30;;
71395;SDS011;59888;55.814;37.132;2023-06-14T21:44:13;13.35;;;6.10;;
71395;SDS011;59888;55.814;37.132;2023-06-14T21:46:39;9.77;;;6.00;;
71395;SDS011;59888;55.814;37.132;2023-06-14T21:49:05;9.98;;;6.10;;
71395;SDS011;59888;55.814;37.132;2023-06-14T21:51:33;11.80;;;5.88;;
71395;SDS011;59888;55.814;37.132;2023-06-14T21:53:58;11.30;;;5.35;;
71395;SDS011;59888;55.814;37.132;2023-06-14T21:56:25;11.73;;;5.47;;
71395;SDS011;59888;55.814;37.132;2023-06-14T21:58:52;8.60;;;5.30;;
71395;SDS011;59888;55.814;37.132;2023-06-14T22:01:19;11.13;;;5.47;;
71395;SDS011;59888;55.814;37.132;2023-06-14T22:03:45;11.70;;;4.85;;
71395;SDS011;59888;55.814;37.132;2023-06-14T22:06:11;16.20;;;5.20;;
71395;SDS011;59888;55.814;37.132;2023-06-14T22:08:38;14.70;;;5.18;;
71395;SDS011;59888;55.814;37.132;2023-06-14T22:11:07;8.88;;;5.00;;
71395;SDS011;59888;55.814;37.132;2023-06-14T22:13:35;9.95;;;5.03;;
71395;SDS011;59888;55.814;37.132;2023-06-14T22:16:04;11.63;;;5.15;;
71395;SDS011;59888;55.814;37.132;2023-06-14T22:18:33;15.73;;;5.43;;
71395;SDS011;59888;55.814;37.132;2023-06-14T22:20:59;9.20;;;5.00;;
71395;SDS011;59888;55.814;37.132;2023-06-14T22:23:26;9.27;;;4.95;;
71395;SDS011;59888;55.814;37.132;2023-06-14T22:26:02;9.00;;;4.88;;
71395;SDS011;59888;55.814;37.132;2023-06-14T22:28:29;12.85;;;4.72;;
71395;SDS011;59888;55.814;37.132;2023-06-14T22:31:07;9.93;;;4.43;;
71395;SDS011;59888;55.814;37.132;2023-06-14T22:33:38;10.05;;;4.70;;
71395;SDS011;59888;55.814;37.132;2023-06-14T22:36:08;8.18;;;4.80;;
71395;SDS011;59888;55.814;37.132;2023-06-14T22:38:35;8.07;;;4.70;;
71395;SDS011;59888;55.814;37.132;2023-06-14T22:41:06;11.75;;;4.50;;
71395;SDS011;59888;55.814;37.132;2023-06-14T22:43:35;15.23;;;5.18;;
71395;SDS011;59888;55.814;37.132;2023-06-14T22:46:06;8.50;;;4.10;;
71395;SDS011;59888;55.814;37.132;2023-06-14T22:48:37;8.70;;;4.72;;
71395;SDS011;59888;55.814;37.132;2023-06-14T22:51:10;9.63;;;4.60;;
71395;SDS011;59888;55.814;37.132;2023-06-14T22:53:37;13.05;;;4.80;;
71395;SDS011;59888;55.814;37.132;2023-06-14T22:56:04;12.00;;;5.28;;
71395;SDS011;59888;55.814;37.132;2023-06-14T22:58:30;11.05;;;4.75;;
71395;SDS011;59888;55.814;37.132;2023-06-14T23:00:59;14.02;;;5.55;;
71395;SDS011;59888;55.814;37.132;2023-06-14T23:03:28;8.40;;;4.28;;
71395;SDS011;59888;55.814;37.132;2023-06-14T23:05:55;12.90;;;4.95;;
71395;SDS011;59888;55.814;37.132;2023-06-14T23:08:30;9.60;;;4.97;;
71395;SDS011;59888;55.814;37.132;2023-06-14T23:10:57;11.32;;;4.45;;
71395;SDS011;59888;55.814;37.132;2023-06-14T23:13:24;9.02;;;4.53;;
71395;SDS011;59888;55.814;37.132;2023-06-14T23:15:51;13.23;;;5.10;;
71395;SDS011;59888;55.814;37.132;2023-06-14T23:18:17;8.38;;;4.85;;
71395;SDS011;59888;55.814;37.132;2023-06-14T23:20:43;8.93;;;4.82;;
71395;SDS011;59888;55.814;37.132;2023-06-14T23:23:09;11.52;;;4.68;;
71395;SDS011;59888;55.814;37.132;2023-06-14T23:25:35;7.50;;;4.18;;
71395;SDS011;59888;55.814;37.132;2023-06-14T23:28:02;10.50;;;4.53;;
71395;SDS011;59888;55.814;37.132;2023-06-14T23:30:29;8.07;;;4.28;;
71395;SDS011;59888;55.814;37.132;2023-06-14T23:33:02;8.93;;;4.75;;
71395;SDS011;59888;55.814;37.132;2023-06-14T23:35:28;9.00;;;4.65;;
71395;SDS011;59888;55.814;37.132;2023-06-14T23:37:59;10.27;;;4.40;;
71395;SDS011;59888;55.814;37.132;2023-06-14T23:40:25;8.05;;;4.13;;
71395;SDS011;59888;55.814;37.132;2023-06-14T23:42:54;11.95;;;4.78;;
71395;SDS011;59888;55.814;37.132;2023-06-14T23:45:20;9.38;;;4.68;;
71395;SDS011;59888;55.814;37.132;2023-06-14T23:47:48;7.65;;;4.60;;
71395;SDS011;59888;55.814;37.132;2023-06-14T23:50:15;9.88;;;4.93;;
71395;SDS011;59888;55.814;37.132;2023-06-14T23:52:41;11.05;;;4.90;;
71395;SDS011;59888;55.814;37.132;2023-06-14T23:55:11;10.05;;;4.32;;
71395;SDS011;59888;55.814;37.132;2023-06-14T23:57:46;7.70;;;4.18;;
